createdAt,value
2019-01-13T00:00:15.865Z,0.00
2019-01-13T00:01:16.061Z,0.00
2019-01-13T00:02:15.817Z,0.00
2019-01-13T00:03:15.736Z,0.00
2019-01-13T00:04:15.826Z,0.00
2019-01-13T00:05:15.737Z,0.00
2019-01-13T00:06:15.746Z,0.00
2019-01-13T00:07:15.753Z,0.00
2019-01-13T00:08:15.724Z,0.00
2019-01-13T00:09:15.756Z,0.00
2019-01-13T00:10:15.788Z,0.00
2019-01-13T00:11:15.656Z,0.00
2019-01-13T00:12:15.666Z,0.00
2019-01-13T00:13:15.668Z,0.00
2019-01-13T00:14:15.645Z,0.00
2019-01-13T00:15:15.674Z,0.00
2019-01-13T00:16:15.641Z,0.00
2019-01-13T00:17:18.522Z,0.00
2019-01-13T00:18:15.652Z,0.00
2019-01-13T00:19:15.623Z,0.00
2019-01-13T00:20:15.580Z,0.00
2019-01-13T00:21:15.546Z,0.00
2019-01-13T00:22:16.550Z,0.00
2019-01-13T00:24:47.187Z,0.00
2019-01-13T00:25:47.162Z,0.00
2019-01-13T00:26:47.144Z,0.00
2019-01-13T00:27:47.912Z,0.00
2019-01-13T00:28:46.912Z,0.00
2019-01-13T00:29:46.786Z,0.00
2019-01-13T00:30:46.830Z,0.00
2019-01-13T00:31:46.753Z,0.00
2019-01-13T00:32:46.951Z,0.00
2019-01-13T00:33:46.749Z,0.00
2019-01-13T00:34:46.734Z,0.00
2019-01-13T00:35:46.711Z,0.00
2019-01-13T00:36:48.808Z,0.00
2019-01-13T01:38:53.207Z,0.00
2019-01-13T01:42:18.632Z,0.00
2019-01-13T02:50:10.356Z,0.00
2019-01-13T02:51:10.688Z,0.00
2019-01-13T03:10:00.517Z,0.00
2019-01-13T03:11:02.627Z,0.00
2019-01-13T05:08:44.856Z,0.00
2019-01-13T05:09:44.839Z,0.00
2019-01-13T05:10:44.594Z,0.00
2019-01-13T05:11:44.975Z,0.00
2019-01-13T05:12:45.395Z,0.00
2019-01-13T05:15:03.854Z,0.00
2019-01-13T05:16:03.641Z,0.00
2019-01-13T05:17:03.404Z,0.00
2019-01-13T05:18:04.338Z,0.00
2019-01-13T05:19:03.234Z,0.00
2019-01-13T05:20:03.181Z,0.00
2019-01-13T05:21:03.259Z,0.00
2019-01-13T05:22:03.170Z,0.00
2019-01-13T05:23:03.192Z,0.00
2019-01-13T05:24:03.230Z,0.00
2019-01-13T05:25:03.101Z,0.00
2019-01-13T05:26:03.128Z,0.00
2019-01-13T05:27:03.078Z,0.00
2019-01-13T05:28:03.073Z,0.00
2019-01-13T05:29:03.091Z,0.00
2019-01-13T05:30:03.046Z,0.00
2019-01-13T05:31:03.025Z,0.00
2019-01-13T05:32:03.024Z,0.00
2019-01-13T05:33:03.045Z,0.00
2019-01-13T05:34:03.052Z,0.00
2019-01-13T05:35:03.101Z,0.00
2019-01-13T05:36:02.987Z,0.00
2019-01-13T05:37:02.973Z,0.00
2019-01-13T05:38:03.010Z,0.00
2019-01-13T05:39:02.981Z,0.00
2019-01-13T05:40:02.956Z,0.00
2019-01-13T05:41:02.986Z,0.00
2019-01-13T05:42:02.920Z,0.00
2019-01-13T05:43:02.907Z,0.00
2019-01-13T05:44:02.904Z,0.00
2019-01-13T05:45:02.943Z,0.00
2019-01-13T05:46:02.930Z,0.00
2019-01-13T05:47:02.935Z,0.00
2019-01-13T05:48:02.854Z,0.00
2019-01-13T05:49:02.827Z,0.00
2019-01-13T05:50:02.887Z,0.00
2019-01-13T05:51:02.919Z,0.00
2019-01-13T05:52:02.810Z,0.00
2019-01-13T05:53:02.916Z,0.00
2019-01-13T05:54:02.784Z,0.00
2019-01-13T05:55:02.804Z,0.00
2019-01-13T05:56:02.791Z,0.00
2019-01-13T05:57:02.922Z,0.00
2019-01-13T05:58:02.889Z,0.00
2019-01-13T05:59:02.775Z,0.00
2019-01-13T06:00:02.820Z,0.00
2019-01-13T06:01:02.742Z,0.00
2019-01-13T06:04:58.753Z,0.00
2019-01-13T06:05:46.574Z,0.00
2019-01-13T06:06:46.596Z,0.00
2019-01-13T06:07:46.907Z,0.00
2019-01-13T06:10:24.418Z,0.00
2019-01-13T06:11:24.113Z,0.00
2019-01-13T06:12:24.024Z,0.00
2019-01-13T06:19:17.249Z,0.00
2019-01-13T06:22:06.914Z,0.00
2019-01-13T06:23:06.135Z,0.00
2019-01-13T06:24:07.227Z,0.00
2019-01-13T06:34:48.010Z,0.00
2019-01-13T06:35:46.368Z,0.00
2019-01-13T06:57:26.305Z,0.00
2019-01-13T07:06:30.526Z,4.00
2019-01-13T07:08:53.380Z,4.00
2019-01-13T07:36:30.352Z,84.00
2019-01-13T07:37:27.453Z,96.00
2019-01-13T07:38:26.645Z,112.00
2019-01-13T07:39:26.844Z,108.00
2019-01-13T07:40:27.386Z,116.00
2019-01-13T08:00:38.770Z,308.00
2019-01-13T08:04:41.957Z,328.00
2019-01-13T08:05:46.650Z,400.00
2019-01-13T08:06:42.444Z,380.00
2019-01-13T08:07:41.685Z,420.00
2019-01-13T08:08:41.398Z,380.00
2019-01-13T08:20:56.600Z,916.00
2019-01-13T08:21:57.101Z,976.00
2019-01-13T08:22:56.071Z,936.00
2019-01-13T08:23:55.753Z,828.00
2019-01-13T08:24:55.686Z,784.00
2019-01-13T08:25:55.741Z,728.00
2019-01-13T08:26:55.967Z,852.00
2019-01-13T08:27:55.910Z,768.00
2019-01-13T08:28:55.622Z,860.00
2019-01-13T08:29:55.661Z,900.00
2019-01-13T08:30:55.609Z,944.00
2019-01-13T08:31:55.599Z,1052.00
2019-01-13T08:32:55.623Z,972.00
2019-01-13T08:33:55.596Z,1016.00
2019-01-13T08:34:55.643Z,1096.00
2019-01-13T08:35:55.561Z,1024.00
2019-01-13T08:36:55.565Z,996.00
2019-01-13T08:37:55.533Z,1112.00
2019-01-13T08:38:55.537Z,1024.00
2019-01-13T08:39:55.587Z,916.00
2019-01-13T08:40:55.500Z,892.00
2019-01-13T08:41:56.507Z,880.00
2019-01-13T08:42:55.692Z,920.00
2019-01-13T08:43:55.469Z,944.00
2019-01-13T08:44:55.510Z,1184.00
2019-01-13T08:45:55.477Z,1156.00
2019-01-13T08:46:55.526Z,1120.00
2019-01-13T08:47:55.486Z,1260.00
2019-01-13T08:48:55.534Z,1132.00
2019-01-13T08:50:07.599Z,1024.00
2019-01-13T08:50:55.703Z,1244.00
2019-01-13T08:51:55.694Z,1036.00
2019-01-13T08:52:55.496Z,944.00
2019-01-13T08:53:55.472Z,832.00
2019-01-13T08:56:09.602Z,1296.00
2019-01-13T08:57:09.379Z,980.00
2019-01-13T08:58:09.163Z,1144.00
2019-01-13T08:59:09.194Z,1236.00
2019-01-13T09:00:10.899Z,1116.00
2019-01-13T09:01:09.038Z,1172.00
2019-01-13T09:02:08.948Z,1212.00
2019-01-13T09:03:09.022Z,1168.00
2019-01-13T09:04:09.012Z,1072.00
2019-01-13T09:05:08.933Z,944.00
2019-01-13T09:06:09.106Z,968.00
2019-01-13T09:07:08.996Z,1008.00
2019-01-13T09:08:08.990Z,988.00
2019-01-13T09:09:08.888Z,1160.00
2019-01-13T09:10:08.859Z,1372.00
2019-01-13T09:11:08.862Z,1408.00
2019-01-13T09:12:08.881Z,1652.00
2019-01-13T09:13:08.931Z,1660.00
2019-01-13T09:14:08.822Z,1648.00
2019-01-13T09:16:25.533Z,1836.00
2019-01-13T09:17:25.124Z,2008.00
2019-01-13T09:18:25.052Z,1960.00
2019-01-13T09:19:25.412Z,2288.00
2019-01-13T09:20:24.947Z,2036.00
2019-01-13T09:21:24.924Z,2680.00
2019-01-13T09:22:25.232Z,2980.00
2019-01-13T09:23:25.709Z,2512.00
2019-01-13T09:24:24.883Z,2232.00
2019-01-13T09:25:24.941Z,2124.00
2019-01-13T09:26:24.864Z,2204.00
2019-01-13T09:27:24.857Z,2252.00
2019-01-13T09:28:25.251Z,3136.00
2019-01-13T09:29:24.861Z,3240.00
2019-01-13T09:30:34.706Z,2728.00
2019-01-13T09:31:25.222Z,2288.00
2019-01-13T09:32:24.901Z,2324.00
2019-01-13T09:33:25.030Z,1776.00
2019-01-13T09:34:24.846Z,1540.00
2019-01-13T09:35:24.824Z,1344.00
2019-01-13T09:36:24.765Z,1212.00
2019-01-13T09:41:18.522Z,1864.00
2019-01-13T09:42:33.887Z,1876.00
2019-01-13T09:43:18.414Z,1896.00
2019-01-13T09:44:20.377Z,2068.00
2019-01-13T09:50:55.038Z,2060.00
2019-01-13T09:53:55.699Z,2456.00
2019-01-13T09:57:42.144Z,2184.00
2019-01-13T10:00:05.327Z,1992.00
2019-01-13T10:01:04.927Z,2316.00
2019-01-13T10:02:04.901Z,2276.00
2019-01-13T10:03:04.928Z,2296.00
2019-01-13T10:04:04.803Z,2380.00
2019-01-13T10:05:04.775Z,2596.00
2019-01-13T10:06:04.770Z,2892.00
2019-01-13T10:07:04.807Z,3256.00
2019-01-13T10:08:04.984Z,2748.00
2019-01-13T10:09:04.705Z,2736.00
2019-01-13T10:10:04.787Z,2340.00
2019-01-13T10:11:04.695Z,2452.00
2019-01-13T10:12:04.730Z,2376.00
2019-01-13T10:13:04.701Z,3292.00
2019-01-13T10:14:04.658Z,4024.00
2019-01-13T10:15:04.644Z,3956.00
2019-01-13T10:16:04.834Z,3424.00
2019-01-13T10:17:04.613Z,4056.00
2019-01-13T10:18:04.652Z,4336.00
2019-01-13T10:19:04.639Z,4672.00
2019-01-13T10:20:04.583Z,4412.00
2019-01-13T10:21:04.570Z,4728.00
2019-01-13T10:22:04.601Z,4084.00
2019-01-13T10:23:04.610Z,3368.00
2019-01-13T10:24:04.539Z,3864.00
2019-01-13T10:25:04.533Z,4556.00
2019-01-13T10:26:06.783Z,5728.00
2019-01-13T10:28:41.495Z,6316.00
2019-01-13T10:29:37.600Z,6188.00
2019-01-13T10:30:37.847Z,6728.00
2019-01-13T10:32:55.161Z,7192.00
2019-01-13T10:33:53.793Z,5288.00
2019-01-13T10:34:53.710Z,5788.00
2019-01-13T10:35:54.330Z,5504.00
2019-01-13T10:37:55.989Z,5564.00
2019-01-13T10:38:55.930Z,5232.00
2019-01-13T10:39:55.479Z,4576.00
2019-01-13T10:40:57.139Z,4084.00
2019-01-13T10:42:05.494Z,5144.00
2019-01-13T10:42:57.050Z,6220.00
2019-01-13T10:43:56.087Z,6456.00
2019-01-13T10:44:55.414Z,7424.00
2019-01-13T10:45:55.134Z,5700.00
2019-01-13T10:46:55.275Z,4724.00
2019-01-13T10:47:55.122Z,5000.00
2019-01-13T10:48:56.999Z,4780.00
2019-01-13T10:49:55.157Z,3888.00
2019-01-13T10:50:56.005Z,3816.00
2019-01-13T10:51:55.076Z,3268.00
2019-01-13T10:52:55.117Z,3548.00
2019-01-13T10:53:55.070Z,4108.00
2019-01-13T10:54:55.279Z,5036.00
2019-01-13T10:55:55.630Z,5108.00
2019-01-13T10:56:55.039Z,5576.00
2019-01-13T10:57:55.106Z,5264.00
2019-01-13T10:58:55.012Z,5792.00
2019-01-13T10:59:55.014Z,5912.00
2019-01-13T11:01:15.993Z,6228.00
2019-01-13T11:01:54.966Z,7320.00
2019-01-13T11:03:01.716Z,4864.00
2019-01-13T11:03:56.694Z,5004.00
2019-01-13T11:04:59.964Z,5916.00
2019-01-13T11:05:55.046Z,5136.00
2019-01-13T11:06:57.984Z,4332.00
2019-01-13T11:07:57.425Z,4644.00
2019-01-13T11:08:55.012Z,5768.00
2019-01-13T11:11:09.438Z,5396.00
2019-01-13T11:12:08.511Z,5672.00
2019-01-13T11:13:08.807Z,6712.00
2019-01-13T11:15:22.081Z,4988.00
2019-01-13T11:17:34.591Z,5020.00
2019-01-13T11:18:35.243Z,5112.00
2019-01-13T11:19:44.637Z,4588.00
2019-01-13T11:20:32.934Z,4764.00
2019-01-13T11:21:35.293Z,5304.00
2019-01-13T11:25:36.828Z,5740.00
2019-01-13T11:26:51.306Z,6100.00
2019-01-13T11:30:19.690Z,5112.00
2019-01-13T11:31:22.469Z,5528.00
2019-01-13T11:33:47.061Z,4608.00
2019-01-13T11:34:46.741Z,4348.00
2019-01-13T11:35:47.614Z,4492.00
2019-01-13T11:36:48.105Z,5824.00
2019-01-13T11:37:48.409Z,5336.00
2019-01-13T11:38:46.506Z,5324.00
2019-01-13T11:41:07.821Z,4536.00
2019-01-13T11:42:07.517Z,4568.00
2019-01-13T11:43:07.430Z,4532.00
2019-01-13T11:44:07.658Z,5148.00
2019-01-13T11:45:07.522Z,5496.00
2019-01-13T11:46:07.522Z,6180.00
2019-01-13T11:47:07.434Z,5240.00
2019-01-13T11:48:07.894Z,5764.00
2019-01-13T11:49:07.325Z,6248.00
2019-01-13T11:50:07.276Z,5620.00
2019-01-13T11:51:07.379Z,5928.00
2019-01-13T11:52:07.349Z,6764.00
2019-01-13T11:53:07.270Z,5892.00
2019-01-13T11:54:07.260Z,4908.00
2019-01-13T11:55:07.369Z,5196.00
2019-01-13T11:56:07.205Z,5480.00
2019-01-13T11:57:07.201Z,5864.00
2019-01-13T11:58:07.234Z,5656.00
2019-01-13T11:59:07.195Z,5672.00
2019-01-13T12:00:07.199Z,5640.00
2019-01-13T12:01:07.154Z,5344.00
2019-01-13T12:02:07.142Z,5848.00
2019-01-13T12:03:07.616Z,6240.00
2019-01-13T12:04:07.188Z,5484.00
2019-01-13T12:07:07.518Z,5328.00
2019-01-13T12:10:52.072Z,4380.00
2019-01-13T12:11:51.446Z,4808.00
2019-01-13T12:12:51.846Z,4272.00
2019-01-13T12:13:51.503Z,3688.00
2019-01-13T12:14:51.407Z,4336.00
2019-01-13T12:15:51.278Z,4048.00
2019-01-13T12:18:44.419Z,3948.00
2019-01-13T12:19:43.509Z,4484.00
2019-01-13T12:20:46.115Z,4244.00
2019-01-13T12:21:43.525Z,4832.00
2019-01-13T12:25:21.848Z,5028.00
2019-01-13T12:26:22.343Z,4752.00
2019-01-13T12:27:21.303Z,4240.00
2019-01-13T12:28:22.208Z,4072.00
2019-01-13T12:29:21.052Z,3996.00
2019-01-13T12:30:21.069Z,3892.00
2019-01-13T12:31:21.207Z,4228.00
2019-01-13T12:32:23.004Z,3564.00
2019-01-13T12:33:24.683Z,4052.00
2019-01-13T12:34:21.099Z,4372.00
2019-01-13T12:35:21.945Z,4156.00
2019-01-13T12:36:20.963Z,4728.00
2019-01-13T12:37:20.909Z,3804.00
2019-01-13T12:38:20.905Z,3396.00
2019-01-13T12:39:20.893Z,4188.00
2019-01-13T12:40:21.046Z,3416.00
2019-01-13T12:41:20.861Z,3744.00
2019-01-13T12:42:25.521Z,4028.00
2019-01-13T12:44:38.426Z,3048.00
2019-01-13T12:45:38.497Z,3212.00
2019-01-13T12:47:58.951Z,2460.00
2019-01-13T12:48:59.154Z,2228.00
2019-01-13T12:55:30.142Z,3088.00
2019-01-13T12:56:17.073Z,3344.00
2019-01-13T12:57:19.182Z,3960.00
2019-01-13T12:58:16.988Z,3776.00
2019-01-13T12:59:18.605Z,3784.00
2019-01-13T13:00:17.079Z,4300.00
2019-01-13T13:02:37.646Z,3960.00
2019-01-13T13:12:19.507Z,4196.00
2019-01-13T13:16:10.319Z,3628.00
2019-01-13T13:21:45.884Z,3180.00
2019-01-13T13:24:05.466Z,3452.00
2019-01-13T13:25:05.167Z,3208.00
2019-01-13T13:26:05.064Z,2452.00
2019-01-13T13:29:42.886Z,2624.00
2019-01-13T13:30:42.462Z,2760.00
2019-01-13T13:33:19.675Z,2460.00
2019-01-13T13:34:16.498Z,2536.00
2019-01-13T13:35:18.290Z,2532.00
2019-01-13T13:36:16.445Z,2392.00
2019-01-13T13:37:16.306Z,2464.00
2019-01-13T13:38:16.333Z,2332.00
2019-01-13T13:39:27.230Z,2568.00
2019-01-13T13:40:16.771Z,1700.00
2019-01-13T13:41:17.584Z,1616.00
2019-01-13T13:42:18.107Z,1632.00
2019-01-13T13:43:16.257Z,1832.00
2019-01-13T13:44:16.240Z,1460.00
2019-01-13T13:45:16.356Z,1752.00
2019-01-13T13:46:16.652Z,1888.00
2019-01-13T13:47:16.194Z,1764.00
2019-01-13T13:49:43.097Z,1332.00
2019-01-13T13:50:42.851Z,1544.00
2019-01-13T13:51:42.751Z,1736.00
2019-01-13T13:52:42.668Z,1608.00
2019-01-13T13:53:42.548Z,1516.00
2019-01-13T13:54:42.554Z,1452.00
2019-01-13T13:55:44.208Z,1492.00
2019-01-13T13:56:42.560Z,1700.00
2019-01-13T13:57:42.574Z,1696.00
2019-01-13T13:58:42.524Z,1856.00
2019-01-13T13:59:43.195Z,1820.00
2019-01-13T14:02:15.475Z,2312.00
2019-01-13T14:04:26.071Z,2088.00
2019-01-13T14:05:26.072Z,1976.00
2019-01-13T14:06:26.628Z,2128.00
2019-01-13T14:07:25.491Z,2088.00
2019-01-13T14:08:25.574Z,1664.00
2019-01-13T14:09:26.201Z,1412.00
2019-01-13T14:10:26.180Z,1396.00
2019-01-13T14:11:26.396Z,1280.00
2019-01-13T14:12:25.443Z,1224.00
2019-01-13T14:13:25.379Z,1292.00
2019-01-13T14:14:28.463Z,1216.00
2019-01-13T14:15:25.345Z,1192.00
2019-01-13T14:16:25.357Z,1248.00
2019-01-13T14:17:27.845Z,1348.00
2019-01-13T14:18:25.309Z,1148.00
2019-01-13T14:19:26.132Z,1452.00
2019-01-13T14:20:25.320Z,1188.00
2019-01-13T14:21:26.240Z,1164.00
2019-01-13T14:23:45.539Z,1552.00
2019-01-13T14:24:45.643Z,1432.00
2019-01-13T14:25:45.495Z,1444.00
2019-01-13T14:26:45.624Z,1372.00
2019-01-13T14:27:45.501Z,1380.00
2019-01-13T14:28:46.364Z,972.00
2019-01-13T14:29:45.361Z,796.00
2019-01-13T14:30:45.407Z,992.00
2019-01-13T14:31:55.386Z,976.00
2019-01-13T14:32:45.720Z,1180.00
2019-01-13T14:33:52.565Z,1076.00
2019-01-13T14:34:46.486Z,1188.00
2019-01-13T14:35:45.741Z,1280.00
2019-01-13T14:36:45.418Z,1356.00
2019-01-13T14:37:47.319Z,1196.00
2019-01-13T14:38:45.258Z,1076.00
2019-01-13T14:39:48.803Z,960.00
2019-01-13T14:40:45.732Z,1016.00
2019-01-13T14:45:09.254Z,1100.00
2019-01-13T14:46:09.290Z,1216.00
2019-01-13T14:47:09.647Z,1172.00
2019-01-13T14:48:09.181Z,936.00
2019-01-13T14:49:09.555Z,1084.00
2019-01-13T14:50:09.076Z,1004.00
2019-01-13T14:54:11.207Z,832.00
2019-01-13T14:57:43.093Z,568.00
2019-01-13T14:58:41.955Z,648.00
2019-01-13T14:59:41.874Z,568.00
2019-01-13T15:00:42.933Z,688.00
2019-01-13T15:01:41.922Z,668.00
2019-01-13T15:02:42.943Z,668.00
2019-01-13T15:03:41.780Z,568.00
2019-01-13T15:04:41.810Z,512.00
2019-01-13T15:05:41.790Z,480.00
2019-01-13T15:06:41.775Z,436.00
2019-01-13T15:07:41.835Z,484.00
2019-01-13T15:08:41.773Z,436.00
2019-01-13T15:09:41.983Z,440.00
2019-01-13T15:10:42.404Z,428.00
2019-01-13T15:13:59.038Z,464.00
2019-01-13T15:14:57.092Z,376.00
2019-01-13T15:21:04.496Z,332.00
2019-01-13T15:22:04.315Z,372.00
2019-01-13T15:23:04.945Z,316.00
2019-01-13T15:24:19.059Z,340.00
2019-01-13T15:25:04.198Z,308.00
2019-01-13T15:26:06.307Z,332.00
2019-01-13T15:27:04.279Z,272.00
2019-01-13T15:28:04.139Z,224.00
2019-01-13T15:29:04.248Z,184.00
2019-01-13T15:31:33.885Z,156.00
2019-01-13T15:35:55.617Z,140.00
2019-01-13T15:40:47.581Z,188.00
2019-01-13T15:41:44.273Z,156.00
2019-01-13T15:44:07.573Z,136.00
2019-01-13T15:45:07.989Z,120.00
2019-01-13T15:46:07.283Z,96.00
2019-01-13T15:47:10.455Z,104.00
2019-01-13T15:48:06.937Z,92.00
2019-01-13T15:49:08.486Z,116.00
2019-01-13T15:50:06.944Z,104.00
2019-01-13T15:51:07.085Z,88.00
2019-01-13T15:52:06.898Z,80.00
2019-01-13T15:53:07.545Z,64.00
2019-01-13T15:54:07.432Z,52.00
2019-01-13T15:55:06.866Z,44.00
2019-01-13T15:56:06.862Z,40.00
2019-01-13T15:57:06.840Z,36.00
2019-01-13T15:58:06.890Z,24.00
2019-01-13T15:59:06.945Z,20.00
2019-01-13T16:00:06.805Z,24.00
2019-01-13T16:01:06.826Z,20.00
2019-01-13T16:02:06.777Z,16.00
2019-01-13T16:03:06.773Z,12.00
2019-01-13T16:04:06.787Z,12.00
2019-01-13T16:05:07.127Z,8.00
2019-01-13T16:06:07.585Z,8.00
2019-01-13T16:07:17.122Z,8.00
2019-01-13T16:08:06.885Z,4.00
2019-01-13T16:09:06.897Z,8.00
2019-01-13T16:10:06.826Z,8.00
2019-01-13T16:11:06.937Z,4.00
2019-01-13T16:12:06.809Z,4.00
2019-01-13T16:13:08.462Z,4.00
2019-01-13T16:15:46.842Z,4.00
2019-01-13T16:20:31.901Z,0.00
2019-01-13T16:24:25.793Z,0.00
2019-01-13T16:25:25.589Z,0.00
2019-01-13T16:26:25.579Z,0.00
2019-01-13T16:27:25.329Z,0.00
2019-01-13T16:28:25.303Z,0.00
2019-01-13T16:33:10.515Z,0.00
2019-01-13T16:34:09.344Z,0.00
2019-01-13T16:35:13.952Z,0.00
2019-01-13T16:36:09.033Z,0.00
2019-01-13T16:37:09.005Z,0.00
2019-01-13T16:42:16.022Z,0.00
2019-01-13T16:43:15.790Z,0.00
2019-01-13T16:44:15.724Z,0.00
2019-01-13T16:45:15.449Z,0.00
2019-01-13T16:46:15.897Z,0.00
2019-01-13T16:47:15.368Z,0.00
2019-01-13T16:48:15.370Z,0.00
2019-01-13T16:49:15.761Z,0.00
2019-01-13T16:50:16.193Z,0.00
2019-01-13T16:51:15.323Z,0.00
2019-01-13T16:54:39.742Z,0.00
2019-01-13T16:55:39.001Z,0.00
2019-01-13T16:56:38.615Z,0.00
2019-01-13T16:59:03.344Z,0.00
2019-01-13T17:00:14.561Z,0.00
2019-01-13T17:01:02.725Z,0.00
2019-01-13T17:02:07.620Z,0.00
2019-01-13T17:03:02.525Z,0.00
2019-01-13T17:04:02.539Z,0.00
2019-01-13T17:05:02.729Z,0.00
2019-01-13T17:06:03.246Z,0.00
2019-01-13T17:07:03.297Z,0.00
2019-01-13T17:08:03.582Z,0.00
2019-01-13T17:09:02.399Z,0.00
2019-01-13T17:10:02.411Z,0.00
2019-01-13T17:11:02.616Z,0.00
2019-01-13T17:12:02.381Z,0.00
2019-01-13T17:20:04.770Z,0.00
2019-01-13T17:21:04.688Z,0.00
2019-01-13T17:22:04.460Z,0.00
2019-01-13T17:23:04.845Z,0.00
2019-01-13T17:24:05.422Z,0.00
2019-01-13T17:31:08.673Z,0.00
2019-01-13T17:32:09.761Z,0.00
2019-01-13T17:33:19.701Z,0.00
2019-01-13T17:34:10.529Z,0.00
2019-01-13T17:40:28.602Z,0.00
2019-01-13T17:41:27.030Z,0.00
2019-01-13T17:42:27.188Z,0.00
2019-01-13T17:43:26.926Z,0.00
2019-01-13T17:44:27.208Z,0.00
2019-01-13T17:45:26.839Z,0.00
2019-01-13T17:46:27.440Z,0.00
2019-01-13T17:47:28.432Z,0.00
2019-01-13T17:48:28.422Z,0.00
2019-01-13T17:49:26.844Z,0.00
2019-01-13T17:50:26.848Z,0.00
2019-01-13T17:51:27.416Z,0.00
2019-01-13T17:52:26.763Z,0.00
2019-01-13T17:53:26.759Z,0.00
2019-01-13T17:54:26.840Z,0.00
2019-01-13T17:55:26.770Z,0.00
2019-01-13T17:56:26.735Z,0.00
2019-01-13T17:57:26.735Z,0.00
2019-01-13T17:58:26.704Z,0.00
2019-01-13T17:59:26.809Z,0.00
2019-01-13T18:00:28.485Z,0.00
2019-01-13T18:01:26.685Z,0.00
2019-01-13T18:02:26.652Z,0.00
2019-01-13T18:03:27.425Z,0.00
2019-01-13T18:04:27.043Z,0.00
2019-01-13T18:06:44.291Z,0.00
2019-01-13T18:07:43.748Z,0.00
2019-01-13T18:08:42.995Z,0.00
2019-01-13T18:09:43.124Z,0.00
2019-01-13T18:10:42.921Z,0.00
2019-01-13T18:11:43.063Z,0.00
2019-01-13T18:12:43.025Z,0.00
2019-01-13T18:13:42.863Z,0.00
2019-01-13T18:14:42.853Z,0.00
2019-01-13T18:15:42.855Z,0.00
2019-01-13T18:16:42.942Z,0.00
2019-01-13T18:17:43.602Z,0.00
2019-01-13T18:18:43.023Z,0.00
2019-01-13T18:21:00.249Z,0.00
2019-01-13T18:21:59.438Z,0.00
2019-01-13T18:22:59.066Z,0.00
2019-01-13T18:23:59.150Z,0.00
2019-01-13T18:24:59.002Z,0.00
2019-01-13T18:25:58.947Z,0.00
2019-01-13T18:26:58.934Z,0.00
2019-01-13T18:27:58.937Z,0.00
2019-01-13T18:28:58.906Z,0.00
2019-01-13T18:29:58.964Z,0.00
2019-01-13T18:32:17.228Z,0.00
2019-01-13T18:34:50.332Z,0.00
2019-01-13T18:35:47.631Z,0.00
2019-01-13T18:36:48.073Z,0.00
2019-01-13T18:37:47.461Z,0.00
2019-01-13T18:38:47.455Z,0.00
2019-01-13T18:42:16.068Z,0.00
2019-01-13T18:43:14.593Z,0.00
2019-01-13T18:44:14.891Z,0.00
2019-01-13T18:46:43.283Z,0.00
2019-01-13T18:47:42.891Z,0.00
2019-01-13T18:48:43.457Z,0.00
2019-01-13T18:49:42.689Z,0.00
2019-01-13T18:50:42.682Z,0.00
2019-01-13T18:51:42.640Z,0.00
2019-01-13T18:52:42.640Z,0.00
2019-01-13T18:53:42.601Z,0.00
2019-01-13T18:54:42.937Z,0.00
2019-01-13T18:55:42.581Z,0.00
2019-01-13T18:56:42.650Z,0.00
2019-01-13T18:57:43.475Z,0.00
2019-01-13T18:58:43.466Z,0.00
2019-01-13T18:59:42.561Z,0.00
2019-01-13T19:00:42.554Z,0.00
2019-01-13T19:01:42.612Z,0.00
2019-01-13T19:02:42.731Z,0.00
2019-01-13T19:03:42.487Z,0.00
2019-01-13T19:04:42.531Z,0.00
2019-01-13T19:05:42.510Z,0.00
2019-01-13T19:06:42.452Z,0.00
2019-01-13T19:07:42.920Z,0.00
2019-01-13T19:08:42.446Z,0.00
2019-01-13T19:10:53.805Z,0.00
2019-01-13T19:11:52.617Z,0.00
2019-01-13T19:12:52.747Z,0.00
2019-01-13T19:13:53.207Z,0.00
2019-01-13T19:14:52.518Z,0.00
2019-01-13T19:15:52.629Z,0.00
2019-01-13T19:16:52.505Z,0.00
2019-01-13T19:17:52.500Z,0.00
2019-01-13T19:20:17.233Z,0.00
2019-01-13T19:21:16.728Z,0.00
2019-01-13T19:22:17.861Z,0.00
2019-01-13T19:23:16.499Z,0.00
2019-01-13T19:29:29.631Z,0.00
2019-01-13T19:30:29.411Z,0.00
2019-01-13T19:36:44.780Z,0.00
2019-01-13T19:37:44.879Z,0.00
2019-01-13T19:38:44.127Z,0.00
2019-01-13T19:39:43.747Z,0.00
2019-01-13T19:40:43.879Z,0.00
2019-01-13T19:41:43.735Z,0.00
2019-01-13T19:42:43.777Z,0.00
2019-01-13T19:45:04.859Z,0.00
2019-01-13T19:46:03.948Z,0.00
2019-01-13T19:47:03.895Z,0.00
2019-01-13T20:35:33.886Z,0.00
2019-01-13T20:36:33.610Z,0.00
2019-01-13T20:37:33.673Z,0.00
2019-01-13T20:38:34.843Z,0.00
2019-01-13T20:39:33.472Z,0.00
2019-01-13T20:40:33.504Z,0.00
2019-01-13T20:41:33.398Z,0.00
2019-01-13T20:42:33.300Z,0.00
2019-01-13T20:43:33.334Z,0.00
2019-01-13T20:44:33.274Z,0.00
2019-01-13T20:45:33.385Z,0.00
2019-01-13T20:58:35.317Z,0.00
2019-01-13T21:01:43.205Z,0.00
2019-01-13T21:02:42.602Z,0.00
2019-01-13T21:03:42.933Z,0.00
2019-01-13T21:04:43.054Z,0.00
2019-01-13T21:05:51.704Z,0.00
2019-01-13T21:06:44.148Z,0.00
2019-01-13T21:07:48.106Z,0.00
2019-01-13T21:12:04.695Z,0.00
2019-01-13T21:13:04.815Z,0.00
2019-01-13T21:14:04.735Z,0.00
2019-01-13T21:15:04.632Z,0.00
2019-01-13T21:16:04.848Z,0.00
2019-01-13T21:17:04.582Z,0.00
2019-01-13T21:18:04.576Z,0.00
2019-01-13T21:19:05.249Z,0.00
2019-01-13T21:20:04.549Z,0.00
2019-01-13T21:21:04.563Z,0.00
2019-01-13T21:22:05.173Z,0.00
2019-01-13T21:23:04.535Z,0.00
2019-01-13T21:24:05.168Z,0.00
2019-01-13T21:25:05.517Z,0.00
2019-01-13T21:26:04.495Z,0.00
2019-01-13T21:27:04.500Z,0.00
2019-01-13T21:28:04.539Z,0.00
2019-01-13T21:29:04.496Z,0.00
2019-01-13T21:30:04.474Z,0.00
2019-01-13T21:31:04.527Z,0.00
2019-01-13T21:32:04.482Z,0.00
2019-01-13T21:33:04.440Z,0.00
2019-01-13T21:34:04.675Z,0.00
2019-01-13T21:35:04.463Z,0.00
2019-01-13T21:36:04.380Z,0.00
2019-01-13T21:37:04.419Z,0.00
2019-01-13T21:38:04.394Z,0.00
2019-01-13T21:39:04.374Z,0.00
2019-01-13T21:40:04.390Z,0.00
2019-01-13T21:41:04.378Z,0.00
2019-01-13T21:42:04.308Z,0.00
2019-01-13T21:43:04.300Z,0.00
2019-01-13T21:44:04.432Z,0.00
2019-01-13T21:45:06.282Z,0.00
2019-01-13T21:46:04.836Z,0.00
2019-01-13T21:47:04.404Z,0.00
2019-01-13T21:48:04.258Z,0.00
2019-01-13T21:49:06.245Z,0.00
2019-01-13T21:50:04.238Z,0.00
2019-01-13T21:51:04.239Z,0.00
2019-01-13T21:52:05.287Z,0.00
2019-01-13T21:53:04.272Z,0.00
2019-01-13T21:54:10.849Z,0.00
2019-01-13T21:56:18.681Z,0.00
2019-01-13T21:57:24.862Z,0.00
2019-01-13T21:58:17.758Z,0.00
2019-01-13T21:59:16.890Z,0.00
2019-01-13T22:00:20.158Z,0.00
2019-01-13T22:01:17.011Z,0.00
2019-01-13T22:02:16.941Z,0.00
2019-01-13T22:03:16.874Z,0.00
2019-01-13T22:04:16.852Z,0.00
2019-01-13T22:05:16.819Z,0.00
2019-01-13T22:06:17.646Z,0.00
2019-01-13T22:07:16.829Z,0.00
2019-01-13T22:08:16.792Z,0.00
2019-01-13T22:09:16.776Z,0.00
2019-01-13T22:10:16.789Z,0.00
2019-01-13T22:11:16.763Z,0.00
2019-01-13T22:12:16.738Z,0.00
2019-01-13T22:13:17.248Z,0.00
2019-01-13T22:14:16.722Z,0.00
2019-01-13T22:15:16.707Z,0.00
2019-01-13T22:16:16.820Z,0.00
2019-01-13T22:17:16.699Z,0.00
2019-01-13T22:18:16.683Z,0.00
2019-01-13T22:19:16.703Z,0.00
2019-01-13T22:20:16.659Z,0.00
2019-01-13T22:21:16.725Z,0.00
2019-01-13T22:22:16.634Z,0.00
2019-01-13T22:23:17.162Z,0.00
2019-01-13T22:24:16.838Z,0.00
2019-01-13T22:25:16.655Z,0.00
2019-01-13T22:26:16.612Z,0.00
2019-01-13T22:27:16.580Z,0.00
2019-01-13T22:28:16.572Z,0.00
2019-01-13T22:29:16.654Z,0.00
2019-01-13T22:30:16.661Z,0.00
2019-01-13T22:31:22.264Z,0.00
2019-01-13T22:32:17.642Z,0.00
2019-01-13T22:33:17.276Z,0.00
2019-01-13T22:34:16.538Z,0.00
2019-01-13T22:35:16.845Z,0.00
2019-01-13T22:36:17.233Z,0.00
2019-01-13T22:37:16.484Z,0.00
2019-01-13T22:38:16.486Z,0.00
2019-01-13T22:39:16.486Z,0.00
2019-01-13T22:40:16.588Z,0.00
2019-01-13T22:41:16.447Z,0.00
2019-01-13T22:42:16.462Z,0.00
2019-01-13T22:43:16.406Z,0.00
2019-01-13T22:44:16.397Z,0.00
2019-01-13T22:45:16.390Z,0.00
2019-01-13T22:46:16.390Z,0.00
2019-01-13T22:47:17.552Z,0.00
2019-01-13T22:49:44.625Z,0.00
2019-01-13T22:50:43.876Z,0.00
2019-01-13T22:51:44.536Z,0.00
2019-01-13T22:52:44.765Z,0.00
2019-01-13T22:53:43.699Z,0.00
2019-01-13T22:54:43.606Z,0.00
2019-01-13T22:55:43.819Z,0.00
2019-01-13T22:56:43.602Z,0.00
2019-01-13T22:57:44.400Z,0.00
2019-01-13T23:00:37.220Z,0.00
2019-01-13T23:01:41.845Z,0.00
2019-01-13T23:02:37.676Z,0.00